createdAt,value
2019-05-29T00:00:21.209Z,61.50
2019-05-29T00:02:50.531Z,60.90
2019-05-29T00:05:19.521Z,60.04
2019-05-29T00:07:48.506Z,59.18
2019-05-29T00:10:18.352Z,59.02
2019-05-29T00:12:47.274Z,59.46
2019-05-29T00:15:16.410Z,59.99
2019-05-29T00:17:45.305Z,60.71
2019-05-29T00:20:14.913Z,60.66
2019-05-29T00:22:44.322Z,60.59
2019-05-29T00:25:14.802Z,61.00
2019-05-29T00:27:43.465Z,60.92
2019-05-29T00:30:13.464Z,60.91
2019-05-29T00:32:42.959Z,61.39
2019-05-29T00:35:12.261Z,61.40
2019-05-29T00:37:41.757Z,61.42
2019-05-29T00:40:10.995Z,61.58
2019-05-29T00:42:39.563Z,60.53
2019-05-29T00:45:09.536Z,60.50
2019-05-29T00:47:38.621Z,59.91
2019-05-29T00:50:07.985Z,59.89
2019-05-29T00:52:37.464Z,60.02
2019-05-29T00:55:08.574Z,60.47
2019-05-29T00:57:37.918Z,61.13
2019-05-29T01:00:07.007Z,60.71
2019-05-29T01:02:35.909Z,60.14
2019-05-29T01:05:04.992Z,60.21
2019-05-29T01:07:34.195Z,60.38
2019-05-29T01:10:03.388Z,59.85
2019-05-29T01:12:32.284Z,60.34
2019-05-29T01:15:00.912Z,60.78
2019-05-29T01:17:29.856Z,61.38
2019-05-29T01:19:58.751Z,62.13
2019-05-29T01:22:27.947Z,62.53
2019-05-29T01:24:56.558Z,62.39
2019-05-29T01:27:25.541Z,63.02
2019-05-29T01:29:54.618Z,63.33
2019-05-29T01:32:23.768Z,63.70
2019-05-29T01:34:52.512Z,63.98
2019-05-29T01:37:22.284Z,63.88
2019-05-29T01:39:51.207Z,63.93
2019-05-29T01:42:19.809Z,63.62
2019-05-29T01:44:48.448Z,63.49
2019-05-29T01:47:17.679Z,64.07
2019-05-29T01:49:47.289Z,64.50
2019-05-29T01:52:15.976Z,64.34
2019-05-29T01:54:44.849Z,63.62
2019-05-29T01:57:14.165Z,62.52
2019-05-29T01:59:43.094Z,62.64
2019-05-29T02:02:11.717Z,62.58
2019-05-29T02:04:40.633Z,62.83
2019-05-29T02:07:09.586Z,63.26
2019-05-29T02:09:38.138Z,63.68
2019-05-29T02:12:07.108Z,64.44
2019-05-29T02:14:35.993Z,65.36
2019-05-29T02:17:04.660Z,65.48
2019-05-29T02:19:33.259Z,65.72
2019-05-29T02:22:02.258Z,66.29
2019-05-29T02:24:30.962Z,66.77
2019-05-29T02:26:59.616Z,66.73
2019-05-29T02:29:28.532Z,66.92
2019-05-29T02:31:57.172Z,66.02
2019-05-29T02:34:27.879Z,65.64
2019-05-29T02:36:57.049Z,65.65
2019-05-29T02:39:27.212Z,66.04
2019-05-29T02:41:56.048Z,66.16
2019-05-29T02:44:25.500Z,66.53
2019-05-29T02:46:54.189Z,67.20
2019-05-29T02:49:23.852Z,67.51
2019-05-29T02:51:53.294Z,67.90
2019-05-29T02:54:22.549Z,67.51
2019-05-29T02:56:51.557Z,67.67
2019-05-29T02:59:21.051Z,67.14
2019-05-29T03:01:49.920Z,67.00
2019-05-29T03:04:18.523Z,66.88
2019-05-29T03:06:47.516Z,66.51
2019-05-29T03:09:16.184Z,65.24
2019-05-29T03:11:44.802Z,64.25
2019-05-29T03:14:13.403Z,64.26
2019-05-29T03:16:42.273Z,64.55
2019-05-29T03:19:11.475Z,64.80
2019-05-29T03:21:40.387Z,65.09
2019-05-29T03:24:09.263Z,65.09
2019-05-29T03:26:38.459Z,65.76
2019-05-29T03:29:07.549Z,66.05
2019-05-29T03:31:45.569Z,65.47
2019-05-29T03:34:07.089Z,65.16
2019-05-29T03:36:43.561Z,64.88
2019-05-29T03:39:07.080Z,64.16
2019-05-29T03:41:35.990Z,64.10
2019-05-29T03:44:05.101Z,63.99
2019-05-29T03:46:41.084Z,64.30
2019-05-29T03:49:04.518Z,64.25
2019-05-29T03:51:35.047Z,64.28
2019-05-29T03:54:04.172Z,64.20
2019-05-29T03:56:34.647Z,63.99
2019-05-29T03:59:03.469Z,63.54
2019-05-29T04:01:33.264Z,63.43
2019-05-29T04:04:02.684Z,62.82
2019-05-29T04:06:31.429Z,63.31
2019-05-29T04:09:02.205Z,63.55
2019-05-29T04:11:31.478Z,63.37
2019-05-29T04:14:00.499Z,63.35
2019-05-29T04:16:52.701Z,63.27
2019-05-29T04:19:04.735Z,64.22
2019-05-29T04:21:34.707Z,64.52
2019-05-29T04:24:06.881Z,64.66
2019-05-29T04:26:39.945Z,64.68
2019-05-29T04:29:09.319Z,64.34
2019-05-29T04:31:38.498Z,63.63
2019-05-29T04:34:07.396Z,64.01
2019-05-29T04:36:36.919Z,63.58
2019-05-29T04:39:06.722Z,62.91
2019-05-29T04:41:37.035Z,63.25
2019-05-29T04:44:06.546Z,63.26
2019-05-29T04:46:36.477Z,64.20
2019-05-29T04:49:06.177Z,63.57
2019-05-29T04:51:35.454Z,64.24
2019-05-29T04:54:04.638Z,63.12
2019-05-29T04:56:34.674Z,62.40
2019-05-29T04:59:04.039Z,62.33
2019-05-29T05:01:33.109Z,61.62
2019-05-29T05:04:01.689Z,61.66
2019-05-29T05:06:31.202Z,61.34
2019-05-29T05:09:00.265Z,60.26
2019-05-29T05:11:29.427Z,59.46
2019-05-29T05:14:01.500Z,57.97
2019-05-29T05:16:29.738Z,55.46
2019-05-29T05:18:58.810Z,55.27
2019-05-29T05:21:27.782Z,52.44
2019-05-29T05:23:56.696Z,48.82
2019-05-29T05:26:25.506Z,48.85
2019-05-29T05:28:54.160Z,50.92
2019-05-29T05:31:23.060Z,51.68
2019-05-29T05:33:51.672Z,53.11
2019-05-29T05:36:20.642Z,51.88
2019-05-29T05:38:49.499Z,51.38
2019-05-29T05:41:18.210Z,50.00
2019-05-29T05:43:47.111Z,51.34
2019-05-29T05:46:16.308Z,52.93
2019-05-29T05:48:45.224Z,53.55
2019-05-29T05:51:13.853Z,52.48
2019-05-29T05:53:42.779Z,52.98
2019-05-29T05:56:11.459Z,52.22
2019-05-29T05:58:41.976Z,52.98
2019-05-29T06:01:11.024Z,53.18
2019-05-29T06:03:40.571Z,53.00
2019-05-29T06:06:09.793Z,53.45
2019-05-29T06:08:38.370Z,52.39
2019-05-29T06:11:07.083Z,52.75
2019-05-29T06:13:36.307Z,53.76
2019-05-29T06:16:05.072Z,52.53
2019-05-29T06:18:34.465Z,52.70
2019-05-29T06:21:03.475Z,53.22
2019-05-29T06:23:32.857Z,52.31
2019-05-29T06:26:01.734Z,53.00
2019-05-29T06:28:30.349Z,52.27
2019-05-29T06:30:59.318Z,51.44
2019-05-29T06:33:27.951Z,51.66
2019-05-29T06:35:56.896Z,52.38
2019-05-29T06:38:26.284Z,51.09
2019-05-29T06:40:54.901Z,51.37
2019-05-29T06:43:24.670Z,52.28
2019-05-29T06:45:53.472Z,51.91
2019-05-29T06:48:41.586Z,51.98
2019-05-29T06:50:57.699Z,51.79
2019-05-29T06:53:26.715Z,52.00
2019-05-29T06:55:57.170Z,52.91
2019-05-29T06:58:26.788Z,52.19
2019-05-29T07:00:55.389Z,52.22
2019-05-29T07:03:24.300Z,53.45
2019-05-29T07:05:53.202Z,53.22
2019-05-29T07:08:37.660Z,52.88
2019-05-29T07:10:52.836Z,52.44
2019-05-29T07:13:21.732Z,52.39
2019-05-29T07:15:50.370Z,52.63
2019-05-29T07:18:19.313Z,52.28
2019-05-29T07:20:48.515Z,53.08
2019-05-29T07:23:17.720Z,53.43
2019-05-29T07:25:47.404Z,52.53
2019-05-29T07:28:16.420Z,53.29
2019-05-29T07:30:54.440Z,52.39
2019-05-29T07:33:16.103Z,53.36
2019-05-29T07:35:45.699Z,53.24
2019-05-29T07:38:14.756Z,53.06
2019-05-29T07:40:47.062Z,53.75
2019-05-29T07:43:14.375Z,53.54
2019-05-29T07:45:44.045Z,50.96
2019-05-29T07:48:13.398Z,50.99
2019-05-29T07:50:42.240Z,51.39
2019-05-29T07:53:10.916Z,50.26
2019-05-29T07:55:40.453Z,50.29
2019-05-29T07:58:09.566Z,50.14
2019-05-29T08:01:01.102Z,51.29
2019-05-29T08:03:08.900Z,51.09
2019-05-29T08:05:37.510Z,51.90
2019-05-29T08:08:06.461Z,50.90
2019-05-29T08:10:35.565Z,48.80
2019-05-29T08:13:04.165Z,50.02
2019-05-29T08:15:33.035Z,48.98
2019-05-29T08:18:01.666Z,47.67
2019-05-29T08:20:30.628Z,47.61
2019-05-29T08:22:59.808Z,48.62
2019-05-29T08:25:28.666Z,49.46
2019-05-29T08:27:57.328Z,50.30
2019-05-29T08:30:26.276Z,48.83
2019-05-29T08:32:55.271Z,46.49
2019-05-29T08:35:24.267Z,47.52
2019-05-29T08:37:53.173Z,48.35
2019-05-29T08:40:22.150Z,46.36
2019-05-29T08:42:51.567Z,46.88
2019-05-29T08:45:20.708Z,46.82
2019-05-29T08:47:49.800Z,46.89
2019-05-29T08:50:19.427Z,46.34
2019-05-29T08:52:50.000Z,46.83
2019-05-29T08:55:18.951Z,46.68
2019-05-29T08:57:48.436Z,46.63
2019-05-29T09:00:18.065Z,47.06
2019-05-29T09:02:47.089Z,47.74
2019-05-29T09:05:16.094Z,47.49
2019-05-29T09:07:46.396Z,46.54
2019-05-29T09:10:15.639Z,45.40
2019-05-29T09:12:50.658Z,44.07
2019-05-29T09:15:20.908Z,44.91
2019-05-29T09:17:45.677Z,44.69
2019-05-29T09:20:28.401Z,44.35
2019-05-29T09:22:45.021Z,44.62
2019-05-29T09:25:15.331Z,45.36
2019-05-29T09:27:44.710Z,45.18
2019-05-29T09:30:14.958Z,43.99
2019-05-29T09:32:50.514Z,41.92
2019-05-29T09:35:16.076Z,44.14
2019-05-29T09:37:45.399Z,42.21
2019-05-29T09:40:18.993Z,42.17
2019-05-29T09:42:47.915Z,39.60
2019-05-29T09:45:17.971Z,42.17
2019-05-29T09:47:47.081Z,42.67
2019-05-29T09:50:17.336Z,37.44
2019-05-29T09:52:46.833Z,39.54
2019-05-29T09:55:15.925Z,39.28
2019-05-29T09:57:45.227Z,40.89
2019-05-29T10:00:14.335Z,41.66
2019-05-29T10:02:42.994Z,42.57
2019-05-29T10:05:11.913Z,41.37
2019-05-29T10:07:40.635Z,42.92
2019-05-29T10:10:09.686Z,43.12
2019-05-29T10:12:38.372Z,42.33
2019-05-29T10:15:07.983Z,43.31
2019-05-29T10:17:36.868Z,43.47
2019-05-29T10:20:06.384Z,43.12
2019-05-29T10:22:35.027Z,43.94
2019-05-29T10:25:03.763Z,42.46
2019-05-29T10:27:32.641Z,40.76
2019-05-29T10:30:01.798Z,42.69
2019-05-29T10:32:30.447Z,40.71
2019-05-29T10:34:59.142Z,39.20
2019-05-29T10:37:27.773Z,37.57
2019-05-29T10:39:56.803Z,39.31
2019-05-29T10:42:25.679Z,39.24
2019-05-29T10:44:54.321Z,41.47
2019-05-29T10:47:23.047Z,36.73
2019-05-29T10:49:51.959Z,38.21
2019-05-29T10:52:20.581Z,39.77
2019-05-29T10:54:50.229Z,41.85
2019-05-29T10:57:19.746Z,39.66
2019-05-29T10:59:48.717Z,40.03
2019-05-29T11:02:17.834Z,39.26
2019-05-29T11:04:50.519Z,41.34
2019-05-29T11:07:17.091Z,43.28
2019-05-29T11:09:46.916Z,43.94
2019-05-29T11:12:16.684Z,42.41
2019-05-29T11:14:46.468Z,41.59
2019-05-29T11:17:15.475Z,40.40
2019-05-29T11:19:44.386Z,37.47
2019-05-29T11:22:25.711Z,38.18
2019-05-29T11:24:44.067Z,39.24
2019-05-29T11:27:12.878Z,42.65
2019-05-29T11:29:42.101Z,41.81
2019-05-29T11:32:10.704Z,43.46
2019-05-29T11:34:39.983Z,43.80
2019-05-29T11:37:08.872Z,43.66
2019-05-29T11:39:38.074Z,44.59
2019-05-29T11:42:07.065Z,43.97
2019-05-29T11:44:35.962Z,43.87
2019-05-29T11:47:05.240Z,43.77
2019-05-29T11:49:34.148Z,41.30
2019-05-29T11:52:22.668Z,39.40
2019-05-29T11:54:33.469Z,38.63
2019-05-29T11:57:03.286Z,38.01
2019-05-29T11:59:32.008Z,35.86
2019-05-29T12:02:03.167Z,34.78
2019-05-29T12:04:31.283Z,35.66
2019-05-29T12:07:01.589Z,36.04
2019-05-29T12:09:33.222Z,37.63
2019-05-29T12:12:02.156Z,35.27
2019-05-29T12:14:31.463Z,37.96
2019-05-29T12:17:00.684Z,38.33
2019-05-29T12:19:29.646Z,38.22
2019-05-29T12:21:58.564Z,36.65
2019-05-29T12:24:27.849Z,36.99
2019-05-29T12:26:56.522Z,38.64
2019-05-29T12:29:25.731Z,37.67
2019-05-29T12:31:54.972Z,38.39
2019-05-29T12:34:23.648Z,40.06
2019-05-29T12:36:53.314Z,39.63
2019-05-29T12:39:22.054Z,37.42
2019-05-29T12:41:50.688Z,37.46
2019-05-29T12:44:19.289Z,37.58
2019-05-29T12:46:48.279Z,37.38
2019-05-29T12:49:17.263Z,35.59
2019-05-29T12:51:45.900Z,35.84
2019-05-29T12:54:14.515Z,34.87
2019-05-29T12:56:43.736Z,36.90
2019-05-29T12:59:12.726Z,37.46
2019-05-29T13:01:41.333Z,36.87
2019-05-29T13:04:09.974Z,35.56
2019-05-29T13:06:38.598Z,37.29
2019-05-29T13:09:08.121Z,34.49
2019-05-29T13:11:37.083Z,34.78
2019-05-29T13:14:05.971Z,35.74
2019-05-29T13:16:34.880Z,35.67
2019-05-29T13:19:05.223Z,35.25
2019-05-29T13:21:34.069Z,33.91
2019-05-29T13:24:06.337Z,34.66
2019-05-29T13:26:33.623Z,36.12
2019-05-29T13:29:03.809Z,35.99
2019-05-29T13:31:33.438Z,34.71
2019-05-29T13:34:02.311Z,35.10
2019-05-29T13:36:30.938Z,33.60
2019-05-29T13:39:00.237Z,33.84
2019-05-29T13:41:29.107Z,35.37
2019-05-29T13:43:58.420Z,34.32
2019-05-29T13:46:27.484Z,34.85
2019-05-29T13:48:56.779Z,33.53
2019-05-29T13:51:25.691Z,34.74
2019-05-29T13:54:03.562Z,36.44
2019-05-29T13:56:24.710Z,35.48
2019-05-29T13:58:53.615Z,34.95
2019-05-29T14:01:22.493Z,34.24
2019-05-29T14:03:51.135Z,34.51
2019-05-29T14:06:20.057Z,33.69
2019-05-29T14:08:48.699Z,34.12
2019-05-29T14:11:17.308Z,33.90
2019-05-29T14:13:45.910Z,34.45
2019-05-29T14:16:14.610Z,33.66
2019-05-29T14:18:43.679Z,33.17
2019-05-29T14:21:13.534Z,34.61
2019-05-29T14:23:42.513Z,34.89
2019-05-29T14:26:12.990Z,33.64
2019-05-29T14:28:41.703Z,33.65
2019-05-29T14:31:10.392Z,32.97
2019-05-29T14:33:39.301Z,33.03
2019-05-29T14:36:07.909Z,33.43
2019-05-29T14:38:36.785Z,33.58
2019-05-29T14:41:05.791Z,34.00
2019-05-29T14:43:34.416Z,32.87
2019-05-29T14:46:03.966Z,32.16
2019-05-29T14:48:33.370Z,33.52
2019-05-29T14:51:03.633Z,33.21
2019-05-29T14:53:32.426Z,33.28
2019-05-29T14:56:02.524Z,32.15
2019-05-29T14:58:31.495Z,32.67
2019-05-29T15:01:00.102Z,32.55
2019-05-29T15:03:29.078Z,31.98
2019-05-29T15:05:57.706Z,32.20
2019-05-29T15:08:26.652Z,32.08
2019-05-29T15:10:55.294Z,32.33
2019-05-29T15:13:24.379Z,32.60
2019-05-29T15:15:53.630Z,31.30
2019-05-29T15:18:22.276Z,31.85
2019-05-29T15:20:51.197Z,32.37
2019-05-29T15:23:19.812Z,31.00
2019-05-29T15:25:48.682Z,31.16
2019-05-29T15:28:17.981Z,30.91
2019-05-29T15:30:47.396Z,32.05
2019-05-29T15:33:16.855Z,30.48
2019-05-29T15:35:45.889Z,31.62
2019-05-29T15:38:14.907Z,31.44
2019-05-29T15:40:43.824Z,30.88
2019-05-29T15:43:12.888Z,31.80
2019-05-29T15:45:41.611Z,31.61
2019-05-29T15:48:11.055Z,31.90
2019-05-29T15:50:40.053Z,33.29
2019-05-29T15:53:08.954Z,34.03
2019-05-29T15:55:37.845Z,33.32
2019-05-29T15:58:07.256Z,32.93
2019-05-29T16:00:36.235Z,32.45
2019-05-29T16:03:05.434Z,32.14
2019-05-29T16:05:34.340Z,32.04
2019-05-29T16:08:03.073Z,31.45
2019-05-29T16:10:31.705Z,30.89
2019-05-29T16:13:00.900Z,32.09
2019-05-29T16:15:29.527Z,32.25
2019-05-29T16:17:58.158Z,32.51
2019-05-29T16:20:27.471Z,33.07
2019-05-29T16:22:56.083Z,32.23
2019-05-29T16:25:39.727Z,33.22
2019-05-29T16:27:55.472Z,32.99
2019-05-29T16:30:24.466Z,33.01
2019-05-29T16:32:53.055Z,32.67
2019-05-29T16:35:23.956Z,32.73
2019-05-29T16:37:52.446Z,31.27
2019-05-29T16:40:21.935Z,32.22
2019-05-29T16:42:51.194Z,32.70
2019-05-29T16:45:20.888Z,33.83
2019-05-29T16:47:49.850Z,32.00
2019-05-29T16:50:19.423Z,33.01
2019-05-29T16:52:48.541Z,32.30
2019-05-29T16:55:19.351Z,32.54
2019-05-29T16:57:49.033Z,32.92
2019-05-29T17:00:19.722Z,34.11
2019-05-29T17:02:48.761Z,34.29
2019-05-29T17:05:17.862Z,34.21
2019-05-29T17:07:46.480Z,34.53
2019-05-29T17:10:16.306Z,34.11
2019-05-29T17:12:45.074Z,33.91
2019-05-29T17:15:15.167Z,33.95
2019-05-29T17:17:44.464Z,34.32
2019-05-29T17:20:14.659Z,34.92
2019-05-29T17:22:44.500Z,34.86
2019-05-29T17:25:14.707Z,34.53
2019-05-29T17:27:43.532Z,35.50
2019-05-29T17:30:12.502Z,34.76
2019-05-29T17:32:41.426Z,35.94
2019-05-29T17:35:10.524Z,35.13
2019-05-29T17:37:39.457Z,34.70
2019-05-29T17:40:08.895Z,34.92
2019-05-29T17:42:37.504Z,36.00
2019-05-29T17:45:06.654Z,35.65
2019-05-29T17:47:36.281Z,36.55
2019-05-29T17:50:05.935Z,36.81
2019-05-29T17:52:35.186Z,36.73
2019-05-29T17:55:04.106Z,37.94
2019-05-29T17:57:33.689Z,37.75
2019-05-29T18:00:05.540Z,37.94
2019-05-29T18:02:50.429Z,36.51
2019-05-29T18:05:04.972Z,36.49
2019-05-29T18:07:33.864Z,37.24
2019-05-29T18:10:02.875Z,36.20
2019-05-29T18:12:31.882Z,37.35
2019-05-29T18:15:00.560Z,38.58
2019-05-29T18:17:29.427Z,38.23
2019-05-29T18:19:58.065Z,39.04
2019-05-29T18:22:27.800Z,38.39
2019-05-29T18:24:56.785Z,39.24
2019-05-29T18:27:26.027Z,39.09
2019-05-29T18:29:56.238Z,39.40
2019-05-29T18:32:25.208Z,39.85
2019-05-29T18:34:56.529Z,40.92
2019-05-29T18:37:26.174Z,41.30
2019-05-29T18:39:55.309Z,41.64
2019-05-29T18:42:25.607Z,42.17
2019-05-29T18:44:54.847Z,43.24
2019-05-29T18:47:23.547Z,43.40
2019-05-29T18:49:52.147Z,43.86
2019-05-29T18:52:21.817Z,44.33
2019-05-29T18:54:50.478Z,44.29
2019-05-29T18:57:19.370Z,44.56
2019-05-29T18:59:48.166Z,45.28
2019-05-29T19:02:17.472Z,45.58
2019-05-29T19:04:46.101Z,46.11
2019-05-29T19:07:14.749Z,46.34
2019-05-29T19:09:43.831Z,46.54
2019-05-29T19:12:12.419Z,46.50
2019-05-29T19:14:41.357Z,47.06
2019-05-29T19:17:10.304Z,46.96
2019-05-29T19:19:38.926Z,47.05
2019-05-29T19:22:07.888Z,46.84
2019-05-29T19:24:36.869Z,47.72
2019-05-29T19:27:05.966Z,47.47
2019-05-29T19:29:34.680Z,47.90
2019-05-29T19:32:03.680Z,47.67
2019-05-29T19:34:33.664Z,48.14
2019-05-29T19:37:02.862Z,48.21
2019-05-29T19:39:32.043Z,48.50
2019-05-29T19:42:00.891Z,48.72
2019-05-29T19:44:30.388Z,49.37
2019-05-29T19:47:00.062Z,49.36
2019-05-29T19:49:28.953Z,49.65
2019-05-29T19:51:57.963Z,49.83
2019-05-29T19:54:27.441Z,50.16
2019-05-29T19:56:56.449Z,50.29
2019-05-29T19:59:25.995Z,51.37
2019-05-29T20:01:55.258Z,51.40
2019-05-29T20:04:24.452Z,52.25
2019-05-29T20:06:53.653Z,53.52
2019-05-29T20:09:22.259Z,54.35
2019-05-29T20:11:51.243Z,53.04
2019-05-29T20:14:20.121Z,51.20
2019-05-29T20:16:49.424Z,50.95
2019-05-29T20:19:18.063Z,51.31
2019-05-29T20:21:46.763Z,51.96
2019-05-29T20:24:15.703Z,51.84
2019-05-29T20:26:44.679Z,52.55
2019-05-29T20:29:13.306Z,52.39
2019-05-29T20:31:42.923Z,52.56
2019-05-29T20:34:11.972Z,53.58
2019-05-29T20:36:41.548Z,54.07
2019-05-29T20:39:10.876Z,54.74
2019-05-29T20:41:42.094Z,54.40
2019-05-29T20:44:10.507Z,54.68
2019-05-29T20:46:39.137Z,55.41
2019-05-29T20:49:08.386Z,54.80
2019-05-29T20:51:38.288Z,55.35
2019-05-29T20:54:06.886Z,55.56
2019-05-29T20:56:35.897Z,55.69
2019-05-29T20:59:04.587Z,55.99
2019-05-29T21:01:40.133Z,56.46
2019-05-29T21:04:03.887Z,56.77
2019-05-29T21:06:32.789Z,57.19
2019-05-29T21:09:02.094Z,58.21
2019-05-29T21:11:31.293Z,59.85
2019-05-29T21:14:00.185Z,60.54
2019-05-29T21:16:29.280Z,61.32
2019-05-29T21:19:00.305Z,61.71
2019-05-29T21:21:29.299Z,61.51
2019-05-29T21:23:58.195Z,61.82
2019-05-29T21:26:26.839Z,62.06
2019-05-29T21:28:55.774Z,62.55
2019-05-29T21:31:24.665Z,61.87
2019-05-29T21:33:53.320Z,62.07
2019-05-29T21:36:22.246Z,62.10
2019-05-29T21:38:51.134Z,62.70
2019-05-29T21:41:20.029Z,62.95
2019-05-29T21:43:48.917Z,62.99
2019-05-29T21:46:18.114Z,63.35
2019-05-29T21:48:47.433Z,63.90
2019-05-29T21:51:16.438Z,64.25
2019-05-29T21:53:45.502Z,64.43
2019-05-29T21:56:14.393Z,64.50
2019-05-29T21:58:58.992Z,64.65
2019-05-29T22:01:14.023Z,64.38
2019-05-29T22:03:42.637Z,64.45
2019-05-29T22:06:11.599Z,64.59
2019-05-29T22:08:40.810Z,64.74
2019-05-29T22:11:10.003Z,64.73
2019-05-29T22:13:38.597Z,64.13
2019-05-29T22:16:07.329Z,63.95
2019-05-29T22:18:35.977Z,63.92
2019-05-29T22:21:07.136Z,63.62
2019-05-29T22:23:35.728Z,63.70
2019-05-29T22:26:04.779Z,63.58
2019-05-29T22:28:33.665Z,63.59
2019-05-29T22:31:02.269Z,63.28
2019-05-29T22:33:30.993Z,63.63
2019-05-29T22:35:59.673Z,63.36
2019-05-29T22:38:28.714Z,63.48
2019-05-29T22:40:57.809Z,63.48
2019-05-29T22:43:26.706Z,63.58
2019-05-29T22:45:55.636Z,63.55
2019-05-29T22:48:24.302Z,63.40
2019-05-29T22:50:53.851Z,63.40
2019-05-29T22:53:23.066Z,63.33
2019-05-29T22:55:52.295Z,63.32
2019-05-29T22:58:20.934Z,63.44
2019-05-29T23:00:49.855Z,63.51
2019-05-29T23:03:18.773Z,63.51
2019-05-29T23:05:47.669Z,63.51
2019-05-29T23:08:16.561Z,63.64
2019-05-29T23:10:45.180Z,64.35
2019-05-29T23:13:14.122Z,64.57
2019-05-29T23:15:43.219Z,64.79
2019-05-29T23:18:11.838Z,65.21
2019-05-29T23:20:40.797Z,65.50
2019-05-29T23:23:09.402Z,65.74
2019-05-29T23:25:38.371Z,65.86
2019-05-29T23:28:06.993Z,66.16
2019-05-29T23:30:35.854Z,66.17
2019-05-29T23:33:04.500Z,66.53
2019-05-29T23:35:33.102Z,66.73
2019-05-29T23:38:02.011Z,66.89
2019-05-29T23:40:31.161Z,66.45
2019-05-29T23:42:59.780Z,66.80
2019-05-29T23:45:28.468Z,67.67
2019-05-29T23:47:57.656Z,67.67
2019-05-29T23:50:26.687Z,67.27
2019-05-29T23:52:55.652Z,67.31
2019-05-29T23:55:24.383Z,67.30
2019-05-29T23:57:53.678Z,67.56
